Time;durP1;ratioP1;P1;durP2;ratioP2;P2;SDS_P1;SDS_P2;PMS_P1;PMS_P2;Temp;Humidity;BMP_temperature;BMP_pressure;BME280_temperature;BME280_humidity;BME280_pressure;Samples;Min_cycle;Max_cycle;Signal;HPM_P1;HPM_P2
2023/12/23 00:00:43;;;;;;;47.63;32.93;;;5.30;99.90;;;;;;6402677;22;20010;-70
2023/12/23 00:03:09;;;;;;;47.37;31.83;;;5.30;99.90;;;;;;6403045;22;20014;-70
2023/12/23 00:05:34;;;;;;;48.17;31.67;;;5.30;99.90;;;;;;6403096;22;20002;-70
2023/12/23 00:08:00;;;;;;;46.73;31.73;;;5.30;99.90;;;;;;6403032;22;20020;-70
2023/12/23 00:10:26;;;;;;;48.70;32.63;;;5.30;99.90;;;;;;6402826;22;19998;-70
2023/12/23 00:12:52;;;;;;;44.90;30.53;;;5.30;99.90;;;;;;6403005;22;20018;-70
2023/12/23 00:15:18;;;;;;;54.03;36.13;;;5.30;99.90;;;;;;6404037;22;19998;-70
2023/12/23 00:17:43;;;;;;;51.20;33.37;;;5.30;99.90;;;;;;6403763;22;20018;-70
2023/12/23 00:20:10;;;;;;;50.67;30.73;;;5.20;99.90;;;;;;6375486;22;20001;-70
2023/12/23 00:27:05;;;;;;;48.73;32.37;;;5.20;99.90;;;;;;6395353;22;20020;-70
2023/12/23 00:30:53;;;;;;;49.70;31.03;;;5.10;99.90;;;;;;6368257;22;20022;-70
2023/12/23 00:41:28;;;;;;;51.63;31.80;;;5.00;99.90;;;;;;5980747;24;20019;-70
2023/12/23 00:46:57;;;;;;;49.07;33.27;;;5.00;99.90;;;;;;6079811;23;20014;-70
2023/12/23 00:49:23;;;;;;;49.93;32.40;;;5.00;99.90;;;;;;6094753;23;20445;-70
2023/12/23 00:51:49;;;;;;;53.33;34.77;;;4.90;99.90;;;;;;6267462;22;20433;-70
2023/12/23 00:54:17;;;;;;;51.70;37.00;;;4.90;99.90;;;;;;6349101;22;20324;-70
2023/12/23 00:56:43;;;;;;;57.10;38.13;;;4.90;99.90;;;;;;6370811;22;20431;-70
2023/12/23 00:59:08;;;;;;;52.37;36.63;;;4.90;99.90;;;;;;6371216;22;20368;-70
2023/12/23 01:01:34;;;;;;;51.93;35.03;;;4.80;99.90;;;;;;6370617;22;19999;-70
2023/12/23 01:04:00;;;;;;;53.47;36.23;;;4.80;99.90;;;;;;6370768;22;19991;-70
2023/12/23 01:06:26;;;;;;;53.70;35.43;;;4.80;99.90;;;;;;6369865;22;20002;-70
2023/12/23 01:08:51;;;;;;;54.97;36.97;;;4.80;99.90;;;;;;6370035;22;20074;-70
2023/12/23 01:11:17;;;;;;;56.43;36.80;;;4.80;99.90;;;;;;6370505;22;19999;-70
2023/12/23 01:13:43;;;;;;;55.57;36.17;;;4.80;99.90;;;;;;6370918;22;19998;-70
2023/12/23 01:16:08;;;;;;;54.97;35.87;;;4.80;99.90;;;;;;6370566;22;20055;-70
2023/12/23 01:18:34;;;;;;;54.43;36.53;;;4.80;99.90;;;;;;6370482;22;20002;-70
2023/12/23 01:21:00;;;;;;;56.50;37.43;;;4.80;99.90;;;;;;6370572;22;20006;-70
2023/12/23 01:23:26;;;;;;;55.07;37.20;;;4.80;99.90;;;;;;6370182;22;20020;-70
2023/12/23 01:25:51;;;;;;;57.10;37.60;;;4.80;99.90;;;;;;6389146;22;20022;-70
2023/12/23 01:28:17;;;;;;;62.13;38.87;;;4.80;99.90;;;;;;6401682;22;20029;-70
2023/12/23 01:30:43;;;;;;;57.80;38.80;;;4.70;99.90;;;;;;6401846;22;20002;-70
2023/12/23 01:33:08;;;;;;;54.67;36.40;;;4.70;99.90;;;;;;6401953;22;20002;-70
2023/12/23 01:35:34;;;;;;;52.23;35.53;;;4.70;99.90;;;;;;6402089;22;19997;-70
2023/12/23 01:38:00;;;;;;;54.67;35.23;;;4.70;99.90;;;;;;6401825;22;20006;-70
2023/12/23 01:40:26;;;;;;;58.73;35.73;;;4.70;99.90;;;;;;6402172;22;19998;-70
2023/12/23 01:42:52;;;;;;;48.07;33.27;;;4.70;99.90;;;;;;6401692;22;20002;-70
2023/12/23 01:45:17;;;;;;;53.23;35.40;;;4.70;99.90;;;;;;6373579;22;20149;-70
2023/12/23 01:47:47;;;;;;;49.47;33.90;;;4.70;99.90;;;;;;6402876;22;20072;-70
2023/12/23 01:50:14;;;;;;;51.93;34.77;;;4.70;99.90;;;;;;6402551;22;20320;-70
2023/12/23 01:52:41;;;;;;;53.87;37.00;;;4.60;99.90;;;;;;6402415;22;20055;-70
2023/12/23 01:55:17;;;;;;;54.67;36.60;;;4.60;99.90;;;;;;6403074;22;20333;-70
2023/12/23 01:58:12;;;;;;;54.97;36.63;;;4.60;99.90;;;;;;6400891;22;20006;-70
2023/12/23 02:04:48;;;;;;;;;;;;;;;;;;;;;
2023/12/23 02:07:20;;;;;;;56.77;35.80;;;4.50;99.90;;;;;;6304630;22;20074;-70
2023/12/23 02:11:35;;;;;;;52.23;35.80;;;4.50;99.90;;;;;;6276539;22;20008;-70
2023/12/23 02:17:47;;;;;;;48.93;31.17;;;4.50;99.90;;;;;;6216692;22;20016;-70
2023/12/23 02:20:23;;;;;;;51.87;33.13;;;4.50;99.90;;;;;;6241778;23;20362;-70
2023/12/23 02:22:56;;;;;;;47.20;32.50;;;4.40;99.90;;;;;;6252376;22;20065;-70
2023/12/23 02:25:22;;;;;;;52.78;33.15;;;4.40;99.90;;;;;;6272759;22;20023;-70
2023/12/23 02:27:58;;;;;;;47.90;32.33;;;4.40;99.90;;;;;;6346699;22;20328;-70
2023/12/23 02:30:25;;;;;;;46.17;31.43;;;4.40;99.90;;;;;;6373672;22;20425;-70
2023/12/23 02:32:52;;;;;;;46.30;30.90;;;4.40;99.90;;;;;;6401488;22;19998;-70
2023/12/23 02:35:22;;;;;;;42.37;28.67;;;4.30;99.90;;;;;;6401113;22;19994;-70
2023/12/23 02:37:47;;;;;;;42.50;28.40;;;4.30;99.90;;;;;;6373180;22;20010;-70
2023/12/23 02:40:13;;;;;;;43.93;29.20;;;4.30;99.90;;;;;;6401255;22;20001;-70
2023/12/23 02:42:39;;;;;;;39.67;27.13;;;4.30;99.90;;;;;;6401413;22;20006;-70
2023/12/23 02:45:05;;;;;;;40.70;26.60;;;4.30;99.90;;;;;;6401556;22;19994;-70
2023/12/23 02:47:31;;;;;;;40.67;27.37;;;4.20;99.90;;;;;;6401352;22;20443;-70
2023/12/23 02:49:57;;;;;;;44.23;27.57;;;4.20;99.90;;;;;;6401341;22;19994;-70
2023/12/23 02:52:23;;;;;;;40.90;27.40;;;4.20;99.90;;;;;;6401343;22;19998;-70
2023/12/23 02:54:48;;;;;;;45.23;27.90;;;4.20;99.90;;;;;;6401841;22;19998;-70
2023/12/23 02:57:14;;;;;;;40.30;27.50;;;4.20;99.90;;;;;;6403046;22;20005;-70
2023/12/23 02:59:40;;;;;;;39.30;26.47;;;4.20;99.90;;;;;;6375729;22;20002;-70
2023/12/23 03:02:06;;;;;;;37.13;25.63;;;4.20;99.90;;;;;;6403070;22;20009;-70
2023/12/23 03:04:32;;;;;;;40.10;25.90;;;4.20;99.90;;;;;;6403295;22;20054;-70
2023/12/23 03:06:58;;;;;;;36.57;24.37;;;4.20;99.90;;;;;;6375354;22;20395;-70
2023/12/23 03:09:25;;;;;;;31.70;22.20;;;4.20;99.90;;;;;;6403900;22;20023;-71
2023/12/23 03:11:50;;;;;;;36.97;23.33;;;4.20;99.90;;;;;;6403449;22;20005;-70
2023/12/23 03:14:16;;;;;;;33.93;23.10;;;4.20;99.90;;;;;;6403998;22;20008;-70
2023/12/23 03:16:42;;;;;;;35.67;22.00;;;4.20;99.90;;;;;;6402767;22;20381;-70
2023/12/23 03:19:09;;;;;;;31.60;21.40;;;4.20;99.90;;;;;;6403255;22;19994;-70
2023/12/23 03:21:35;;;;;;;29.73;21.07;;;4.20;99.90;;;;;;6403825;22;20319;-70
2023/12/23 03:24:01;;;;;;;28.30;20.27;;;4.20;99.90;;;;;;6404116;22;19994;-70
2023/12/23 03:26:30;;;;;;;29.53;17.10;;;4.20;99.90;;;;;;6403486;22;20017;-70
2023/12/23 03:28:56;;;;;;;32.23;19.03;;;4.20;99.90;;;;;;6375531;22;20005;-70
2023/12/23 03:31:48;;;;;;;26.60;18.70;;;4.30;99.90;;;;;;6375323;22;20342;-70
2023/12/23 03:38:21;;;;;;;29.00;16.95;;;4.30;99.90;;;;;;6222533;23;20012;-70
2023/12/23 03:48:11;;;;;;;30.80;20.75;;;4.30;99.90;;;;;;6160886;23;20016;-70
2023/12/23 03:54:01;;;;;;;31.53;19.93;;;4.20;99.90;;;;;;6152769;23;20010;-70
2023/12/23 03:56:27;;;;;;;29.97;19.17;;;4.20;99.90;;;;;;6152845;23;20325;-70
2023/12/23 03:58:52;;;;;;;31.33;20.77;;;4.10;99.90;;;;;;6153505;23;20008;-70
2023/12/23 04:01:19;;;;;;;27.47;18.97;;;4.10;99.90;;;;;;6333186;22;20037;-70
2023/12/23 04:03:46;;;;;;;30.57;20.63;;;4.10;99.90;;;;;;6375033;22;20093;-70
2023/12/23 04:06:11;;;;;;;33.17;21.07;;;4.10;99.90;;;;;;6402839;22;20309;-70
2023/12/23 04:08:39;;;;;;;31.13;19.70;;;4.10;99.90;;;;;;6374207;22;20009;-70
2023/12/23 04:11:05;;;;;;;31.50;19.87;;;4.10;99.90;;;;;;6402605;22;20337;-70
2023/12/23 04:13:31;;;;;;;31.17;20.20;;;4.00;99.90;;;;;;6403037;22;20036;-70
2023/12/23 04:15:57;;;;;;;30.40;19.23;;;4.00;99.90;;;;;;6374677;22;20324;-70
2023/12/23 04:18:22;;;;;;;31.77;20.73;;;4.00;99.90;;;;;;6402999;22;19998;-70
2023/12/23 04:20:48;;;;;;;32.07;20.43;;;4.00;99.90;;;;;;6402926;22;19994;-70
2023/12/23 04:23:14;;;;;;;30.30;20.00;;;4.00;99.90;;;;;;6402594;22;19998;-70
2023/12/23 04:25:41;;;;;;;29.70;20.07;;;3.90;99.90;;;;;;6402799;22;20018;-70
2023/12/23 04:28:07;;;;;;;29.17;19.23;;;4.00;99.90;;;;;;6402397;22;20008;-70
2023/12/23 04:30:34;;;;;;;29.57;20.63;;;3.90;99.90;;;;;;6402872;22;20077;-70
2023/12/23 04:33:00;;;;;;;30.73;20.67;;;3.90;99.90;;;;;;6374390;22;20017;-70
2023/12/23 04:35:26;;;;;;;31.30;19.87;;;3.90;99.90;;;;;;6402547;22;20071;-71
2023/12/23 04:37:52;;;;;;;29.97;19.93;;;3.90;99.90;;;;;;6402708;22;20006;-70
2023/12/23 04:40:18;;;;;;;29.07;19.37;;;3.80;99.90;;;;;;6402784;22;19998;-70
2023/12/23 04:42:43;;;;;;;31.67;20.87;;;3.80;99.90;;;;;;6403509;22;20010;-70
2023/12/23 04:45:09;;;;;;;28.13;19.83;;;3.80;99.90;;;;;;6402660;22;19994;-70
2023/12/23 04:47:35;;;;;;;30.43;19.37;;;3.80;99.90;;;;;;6373998;22;20512;-70
2023/12/23 04:50:02;;;;;;;34.93;20.17;;;3.80;99.90;;;;;;6402119;22;19998;-70
2023/12/23 04:52:27;;;;;;;29.63;19.30;;;3.80;99.90;;;;;;6402466;22;20004;-70
2023/12/23 04:54:53;;;;;;;30.13;19.13;;;3.70;99.90;;;;;;6403061;22;20061;-70
2023/12/23 04:57:19;;;;;;;29.57;19.30;;;3.80;99.90;;;;;;6403224;22;20010;-70
2023/12/23 04:59:45;;;;;;;30.87;20.00;;;3.70;99.90;;;;;;6403302;22;20005;-70
2023/12/23 05:02:11;;;;;;;32.37;20.97;;;3.70;99.90;;;;;;6402935;22;20086;-70
2023/12/23 05:04:37;;;;;;;31.80;18.77;;;3.70;99.90;;;;;;6402792;22;19998;-70
2023/12/23 05:17:14;;;;;;;26.00;17.67;;;3.70;99.90;;;;;;6182766;23;20017;-70
2023/12/23 05:26:16;;;;;;;29.73;17.27;;;3.80;99.90;;;;;;6122808;23;20104;-70
2023/12/23 05:29:40;;;;;;;28.33;16.27;;;3.80;99.90;;;;;;6181530;23;20009;-70
2023/12/23 05:32:09;;;;;;;26.07;15.40;;;3.80;99.90;;;;;;6110110;23;20357;-70
2023/12/23 05:34:36;;;;;;;22.83;14.73;;;3.80;99.90;;;;;;6266521;22;20034;-70
2023/12/23 05:37:02;;;;;;;21.50;14.80;;;3.80;99.90;;;;;;6364026;22;20377;-70
2023/12/23 05:39:28;;;;;;;23.37;13.87;;;3.80;99.90;;;;;;6401378;22;20017;-70
2023/12/23 05:41:54;;;;;;;22.73;14.53;;;3.80;99.90;;;;;;6401753;22;19997;-70
2023/12/23 05:44:19;;;;;;;20.90;13.67;;;3.80;99.90;;;;;;6401669;22;20040;-70
2023/12/23 05:46:45;;;;;;;23.57;14.37;;;3.90;99.90;;;;;;6401999;22;20050;-70
2023/12/23 05:49:11;;;;;;;25.00;14.33;;;4.00;99.90;;;;;;6401569;22;19993;-70
2023/12/23 05:51:37;;;;;;;25.07;15.57;;;4.00;99.90;;;;;;6401488;22;20013;-72
2023/12/23 05:54:03;;;;;;;21.60;14.57;;;4.10;99.90;;;;;;6398496;22;20047;-70
2023/12/23 05:56:29;;;;;;;27.03;16.43;;;4.10;99.90;;;;;;6400562;22;20014;-71
2023/12/23 05:58:56;;;;;;;23.00;15.07;;;4.10;99.90;;;;;;6400838;22;19998;-70
2023/12/23 06:01:22;;;;;;;25.30;16.43;;;4.10;99.90;;;;;;6400874;22;19998;-71
2023/12/23 06:03:48;;;;;;;24.87;16.80;;;4.10;99.90;;;;;;6401890;22;20025;-71
2023/12/23 06:06:13;;;;;;;26.53;16.10;;;4.10;99.90;;;;;;6402078;22;20034;-71
2023/12/23 06:08:40;;;;;;;27.57;16.87;;;4.10;99.90;;;;;;6401616;22;20012;-70
2023/12/23 06:11:07;;;;;;;25.00;16.27;;;4.10;99.90;;;;;;6402021;22;20030;-71
2023/12/23 06:13:33;;;;;;;25.30;16.20;;;4.00;99.90;;;;;;6402171;22;19998;-70
2023/12/23 06:16:05;;;;;;;23.03;16.50;;;4.00;99.90;;;;;;6401762;22;19998;-71
2023/12/23 06:18:32;;;;;;;21.83;15.20;;;3.90;99.90;;;;;;6401712;22;20077;-70
2023/12/23 06:20:57;;;;;;;23.87;15.87;;;3.90;99.90;;;;;;6401644;22;20005;-71
2023/12/23 06:23:23;;;;;;;23.70;16.57;;;3.90;99.90;;;;;;6401566;22;20002;-71
2023/12/23 06:25:49;;;;;;;27.80;16.53;;;3.90;99.90;;;;;;6401346;22;20021;-70
2023/12/23 06:28:15;;;;;;;24.60;15.87;;;3.90;99.90;;;;;;6401583;22;20002;-71
2023/12/23 06:30:40;;;;;;;23.00;15.80;;;3.80;99.90;;;;;;6401297;22;20006;-70
2023/12/23 06:33:06;;;;;;;26.23;16.37;;;3.80;99.90;;;;;;6401744;22;20029;-71
2023/12/23 06:35:32;;;;;;;26.90;15.80;;;3.80;99.90;;;;;;6402669;22;20431;-70
2023/12/23 06:37:58;;;;;;;26.27;16.90;;;3.80;99.90;;;;;;6402291;22;20089;-70
2023/12/23 06:40:24;;;;;;;30.60;17.07;;;3.80;99.90;;;;;;6401868;22;20009;-71
2023/12/23 06:43:29;;;;;;;22.13;16.40;;;3.80;99.90;;;;;;6402194;22;20010;-70
2023/12/23 06:50:09;;;;;;;26.50;17.17;;;3.80;99.90;;;;;;6211307;23;20005;-71
2023/12/23 06:56:49;;;;;;;22.43;15.60;;;3.80;99.90;;;;;;6057761;23;20073;-71
2023/12/23 06:59:18;;;;;;;29.23;15.77;;;3.70;99.90;;;;;;6020312;23;20022;-71
2023/12/23 07:06:29;;;;;;;24.38;15.35;;;3.60;99.90;;;;;;6093069;23;20022;-71
2023/12/23 07:09:00;;;;;;;25.77;15.37;;;3.60;99.90;;;;;;6073925;23;20341;-70
2023/12/23 07:11:27;;;;;;;25.83;15.67;;;3.50;99.90;;;;;;6268476;22;20307;-70
2023/12/23 07:13:53;;;;;;;25.97;16.87;;;3.60;99.90;;;;;;6359753;22;20357;-70
2023/12/23 07:16:19;;;;;;;25.37;15.87;;;3.50;99.90;;;;;;6401337;22;20033;-71
2023/12/23 07:18:45;;;;;;;25.77;15.13;;;3.60;99.90;;;;;;6401662;22;20320;-73
2023/12/23 07:21:12;;;;;;;24.33;16.10;;;3.60;99.90;;;;;;6401150;22;19994;-71
2023/12/23 07:23:38;;;;;;;27.33;16.70;;;3.60;99.90;;;;;;6401074;22;19998;-70
2023/12/23 07:26:05;;;;;;;26.20;15.77;;;3.70;99.90;;;;;;6401099;22;20017;-70
2023/12/23 07:28:31;;;;;;;22.27;14.43;;;3.70;99.90;;;;;;6372997;22;20417;-71
2023/12/23 07:30:56;;;;;;;22.17;14.97;;;3.80;99.90;;;;;;6401024;22;19998;-70
2023/12/23 07:33:22;;;;;;;23.93;15.43;;;3.90;99.90;;;;;;6400836;22;20002;-71
2023/12/23 07:35:48;;;;;;;24.10;15.97;;;4.00;99.90;;;;;;6400905;22;20039;-70
2023/12/23 07:38:14;;;;;;;23.93;16.07;;;3.90;99.90;;;;;;6400820;22;20010;-70
2023/12/23 07:40:40;;;;;;;23.77;16.57;;;4.00;99.90;;;;;;6401151;22;20005;-70
2023/12/23 07:43:06;;;;;;;26.40;15.60;;;4.00;99.90;;;;;;6402431;22;20476;-70
2023/12/23 07:45:32;;;;;;;26.07;16.70;;;4.00;99.90;;;;;;6402814;22;20014;-70
2023/12/23 07:47:57;;;;;;;23.10;15.83;;;4.10;99.90;;;;;;6402913;22;19998;-70
2023/12/23 07:50:23;;;;;;;23.30;16.53;;;4.10;99.90;;;;;;6402874;22;20008;-70
2023/12/23 07:52:49;;;;;;;25.20;15.50;;;4.10;99.90;;;;;;6403025;22;20045;-70
2023/12/23 07:55:15;;;;;;;23.93;15.17;;;4.20;99.90;;;;;;6402960;22;20097;-70
2023/12/23 07:57:45;;;;;;;26.37;15.83;;;4.20;99.90;;;;;;6402706;22;20014;-71
2023/12/23 08:00:11;;;;;;;22.30;15.07;;;4.30;99.90;;;;;;6402677;22;20006;-72
2023/12/23 08:02:37;;;;;;;25.13;15.87;;;4.30;99.90;;;;;;6402919;22;20431;-70
2023/12/23 08:05:04;;;;;;;27.53;17.97;;;4.40;99.90;;;;;;6403119;22;20022;-71
2023/12/23 08:07:30;;;;;;;31.50;19.90;;;4.50;99.90;;;;;;6398478;22;20002;-70
2023/12/23 08:09:56;;;;;;;38.07;18.17;;;4.50;99.90;;;;;;6400081;22;20002;-72
2023/12/23 08:12:21;;;;;;;30.33;18.23;;;4.50;99.90;;;;;;6401556;22;20435;-74
2023/12/23 08:14:47;;;;;;;28.73;18.93;;;4.60;99.90;;;;;;6400461;22;19998;-73
2023/12/23 08:17:13;;;;;;;23.90;17.53;;;4.60;99.90;;;;;;6402565;22;20443;-72
2023/12/23 08:19:39;;;;;;;26.93;18.10;;;4.70;99.90;;;;;;6403305;22;20027;-72
2023/12/23 08:40:20;;;;;;;23.63;15.07;;;5.10;99.90;;;;;;6183925;23;20382;-74
2023/12/23 08:46:02;;;;;;;22.43;13.93;;;5.30;99.90;;;;;;6094329;23;20404;-72
2023/12/23 08:48:28;;;;;;;25.40;15.53;;;5.40;99.90;;;;;;6094979;23;20033;-70
2023/12/23 08:50:54;;;;;;;26.03;15.33;;;5.40;99.90;;;;;;6158689;23;20371;-71
2023/12/23 08:53:20;;;;;;;28.03;15.93;;;5.50;99.90;;;;;;6282124;22;20010;-70
2023/12/23 08:55:45;;;;;;;24.43;15.40;;;5.60;99.90;;;;;;6370217;22;20073;-71
2023/12/23 08:58:13;;;;;;;24.10;15.87;;;5.70;99.90;;;;;;6370448;22;20018;-70
2023/12/23 09:00:39;;;;;;;26.07;16.83;;;5.80;99.90;;;;;;6370778;22;20306;-72
2023/12/23 09:03:05;;;;;;;34.93;18.87;;;5.90;99.90;;;;;;6370651;22;20013;-70
2023/12/23 09:05:31;;;;;;;33.60;21.07;;;6.00;99.90;;;;;;6370806;22;20009;-70
2023/12/23 09:07:57;;;;;;;24.33;16.73;;;6.00;99.90;;;;;;6370743;22;20033;-70
2023/12/23 09:10:23;;;;;;;27.23;17.90;;;6.10;99.90;;;;;;6370268;22;20432;-70
2023/12/23 09:12:49;;;;;;;24.20;16.13;;;6.10;99.90;;;;;;6370588;22;20009;-70
2023/12/23 09:15:14;;;;;;;23.07;16.90;;;6.10;99.90;;;;;;6369895;22;19998;-69
2023/12/23 09:17:40;;;;;;;25.63;16.33;;;6.20;99.90;;;;;;6370527;22;20010;-69
2023/12/23 09:20:06;;;;;;;28.33;18.73;;;6.20;99.90;;;;;;6370445;22;19999;-69
2023/12/23 09:22:32;;;;;;;35.60;21.50;;;6.20;99.90;;;;;;6369901;22;20428;-69
2023/12/23 09:24:58;;;;;;;29.40;19.57;;;6.20;99.90;;;;;;6370556;22;20042;-69
2023/12/23 09:27:24;;;;;;;27.93;18.87;;;6.20;99.90;;;;;;6368201;22;20030;-70
2023/12/23 09:29:50;;;;;;;28.13;18.87;;;6.30;99.90;;;;;;6383157;22;20018;-70
2023/12/23 09:32:16;;;;;;;25.97;18.23;;;6.30;99.90;;;;;;6399512;22;20002;-70
2023/12/23 09:34:41;;;;;;;24.97;17.13;;;6.30;99.90;;;;;;6399701;22;20012;-69
2023/12/23 09:37:07;;;;;;;32.73;19.60;;;6.30;99.90;;;;;;6399763;22;20013;-70
2023/12/23 09:39:33;;;;;;;25.93;17.77;;;6.40;99.90;;;;;;6400178;22;20022;-70
2023/12/23 09:42:00;;;;;;;24.80;18.23;;;6.40;99.90;;;;;;6400516;22;19994;-70
2023/12/23 09:44:25;;;;;;;31.47;20.73;;;6.50;99.90;;;;;;6402320;22;20010;-71
2023/12/23 09:46:51;;;;;;;25.43;18.47;;;6.50;99.90;;;;;;6399454;22;20367;-69
2023/12/23 09:49:17;;;;;;;30.50;19.00;;;6.60;99.90;;;;;;6399052;22;20336;-71
2023/12/23 09:51:44;;;;;;;33.87;20.80;;;6.70;99.90;;;;;;6398811;22;19997;-71
2023/12/23 09:54:18;;;;;;;28.87;20.43;;;6.70;99.90;;;;;;6401048;22;20007;-71
2023/12/23 10:03:47;;;;;;;32.03;18.67;;;6.90;99.90;;;;;;6195484;23;20015;-70
2023/12/23 10:06:57;;;;;;;29.97;17.67;;;7.00;99.90;;;;;;6121624;23;20391;-72
2023/12/23 10:12:55;;;;;;;25.83;17.70;;;7.20;99.90;;;;;;6123819;23;20142;-72
2023/12/23 10:19:19;;;;;;;30.13;18.43;;;7.40;99.90;;;;;;6119673;23;20166;-72
2023/12/23 10:21:49;;;;;;;32.90;20.23;;;7.40;99.90;;;;;;6121458;23;20012;-73
2023/12/23 10:24:17;;;;;;;31.03;20.27;;;7.50;99.90;;;;;;6349052;22;20006;-73
2023/12/23 10:26:44;;;;;;;29.17;19.47;;;7.60;99.90;;;;;;6401066;22;20309;-73
2023/12/23 10:29:11;;;;;;;30.87;21.10;;;7.60;99.90;;;;;;6401884;22;20325;-72
2023/12/23 10:31:37;;;;;;;41.60;21.47;;;7.70;99.90;;;;;;6401964;22;20001;-71
2023/12/23 10:34:10;;;;;;;33.73;21.83;;;7.80;99.90;;;;;;6401561;22;20335;-72
2023/12/23 10:36:37;;;;;;;;;;;7.80;99.90;;;;;;6401219;22;20323;-73
2023/12/23 10:39:06;;;;;;;34.87;21.97;;;7.90;99.90;;;;;;6399282;22;20227;-74
2023/12/23 10:41:50;;;;;;;33.47;21.23;;;7.90;99.90;;;;;;6399501;22;20364;-72
2023/12/23 10:44:17;;;;;;;32.60;21.17;;;8.00;99.90;;;;;;6399294;22;20323;-71
2023/12/23 10:46:44;;;;;;;30.40;20.80;;;8.10;99.90;;;;;;6399848;22;20051;-71
2023/12/23 10:49:11;;;;;;;26.67;18.47;;;8.20;99.90;;;;;;6399601;22;20073;-73
2023/12/23 10:51:39;;;;;;;30.07;18.57;;;8.30;99.90;;;;;;6399743;22;20431;-71
2023/12/23 10:54:09;;;;;;;26.77;18.57;;;8.30;99.90;;;;;;6401536;22;20415;-72
2023/12/23 10:56:36;;;;;;;28.53;18.67;;;8.40;99.90;;;;;;6373263;22;20014;-74
2023/12/23 10:59:03;;;;;;;27.37;17.70;;;8.50;99.90;;;;;;6401733;22;20009;-71
2023/12/23 11:01:33;;;;;;;23.97;17.07;;;8.60;99.90;;;;;;6401472;22;20074;-69
2023/12/23 11:04:00;;;;;;;30.20;18.70;;;8.60;99.90;;;;;;6401409;22;20009;-70
2023/12/23 11:06:32;;;;;;;31.07;18.90;;;8.70;99.90;;;;;;6401070;22;20006;-70
2023/12/23 11:09:00;;;;;;;26.45;18.15;;;8.80;99.90;;;;;;6401346;22;20022;-70
2023/12/23 11:11:27;;;;;;;25.80;17.63;;;8.90;99.90;;;;;;6401198;22;20006;-71
2023/12/23 11:13:53;;;;;;;31.80;18.57;;;8.90;99.90;;;;;;6400885;22;20420;-70
2023/12/23 11:16:19;;;;;;;26.47;18.83;;;9.00;99.90;;;;;;6402142;22;20368;-70
2023/12/23 11:18:44;;;;;;;26.43;18.63;;;9.10;99.90;;;;;;6404441;22;20010;-71
2023/12/23 11:21:19;;;;;;;30.87;19.03;;;9.10;99.90;;;;;;6403660;22;20009;-80
2023/12/23 11:23:46;;;;;;;25.80;19.20;;;9.20;99.90;;;;;;6403897;22;20085;-74
2023/12/23 11:26:40;;;;;;;35.23;19.73;;;9.30;99.90;;;;;;6404325;22;19994;-72
2023/12/23 11:29:07;;;;;;;30.73;18.93;;;9.30;99.90;;;;;;6403325;22;20018;-74
2023/12/23 11:31:33;;;;;;;25.27;16.90;;;9.40;99.90;;;;;;6403970;22;20034;-77
2023/12/23 11:34:52;;;;;;;25.07;17.87;;;9.50;99.90;;;;;;6403811;22;20065;-78
2023/12/23 11:37:57;;;;;;;30.67;19.57;;;9.60;99.90;;;;;;6213979;23;20020;-73
2023/12/23 11:41:45;;;;;;;;;;;;;;;;;;;;;
2023/12/23 11:44:04;;;;;;;28.35;20.23;;;9.70;99.90;;;;;;6191636;23;20023;-77
2023/12/23 11:47:21;;;;;;;28.30;20.17;;;9.80;99.90;;;;;;6213052;23;20344;-72
2023/12/23 11:50:03;;;;;;;29.70;20.30;;;9.90;99.90;;;;;;6065414;23;20014;-71
2023/12/23 11:53:18;;;;;;;32.03;22.57;;;10.00;99.90;;;;;;6066843;23;20015;-72
2023/12/23 11:56:20;;;;;;;34.13;23.10;;;10.00;99.90;;;;;;6037739;23;20398;-72
2023/12/23 11:58:47;;;;;;;38.87;24.93;;;10.10;99.90;;;;;;6112691;23;20017;-79
2023/12/23 12:01:13;;;;;;;32.17;23.77;;;10.10;99.90;;;;;;6285651;22;20379;-78
2023/12/23 12:03:39;;;;;;;36.17;25.63;;;10.10;99.90;;;;;;6303000;22;20338;-79
2023/12/23 12:06:06;;;;;;;36.13;25.07;;;10.20;99.90;;;;;;6303023;22;20384;-78
2023/12/23 12:08:33;;;;;;;36.67;25.83;;;10.30;99.90;;;;;;6359790;22;20016;-79
2023/12/23 12:11:01;;;;;;;42.90;26.23;;;10.30;99.90;;;;;;6401174;22;20386;-79
2023/12/23 12:13:38;;;;;;;38.70;29.27;;;10.30;99.90;;;;;;6401799;22;20335;-80
2023/12/23 12:16:05;;;;;;;38.23;27.23;;;10.40;99.90;;;;;;6402348;22;19998;-79
2023/12/23 12:18:31;;;;;;;39.53;29.30;;;10.40;99.90;;;;;;6403055;22;20010;-72
2023/12/23 12:20:57;;;;;;;39.40;27.40;;;10.40;99.90;;;;;;6403249;22;20006;-75
2023/12/23 12:23:23;;;;;;;41.40;27.95;;;10.50;99.90;;;;;;6403374;22;20013;-76
2023/12/23 12:25:49;;;;;;;38.23;27.20;;;10.50;99.90;;;;;;6402621;22;19997;-76
2023/12/23 12:28:15;;;;;;;41.40;28.05;;;10.50;99.90;;;;;;6402522;22;20001;-74
2023/12/23 12:30:43;;;;;;;45.22;27.85;;;10.50;99.90;;;;;;6402031;22;20393;-75
2023/12/23 12:33:09;;;;;;;36.23;26.67;;;10.60;99.90;;;;;;6401824;22;20498;-74
2023/12/23 12:35:36;;;;;;;36.83;27.08;;;10.60;99.90;;;;;;6402441;22;20408;-72
2023/12/23 12:38:02;;;;;;;45.10;26.77;;;10.70;99.90;;;;;;6402195;22;21008;-69
2023/12/23 12:40:32;;;;;;;38.38;26.77;;;10.70;99.90;;;;;;6402757;22;20050;-68
2023/12/23 12:43:05;;;;;;;35.58;26.35;;;10.70;99.90;;;;;;6402652;22;20435;-72
2023/12/23 12:45:35;;;;;;;;;;;10.80;99.90;;;;;;6402875;22;20002;-71
2023/12/23 12:48:04;;;;;;;34.88;25.48;;;10.80;99.90;;;;;;6402409;22;19904;-72
2023/12/23 12:50:30;;;;;;;36.97;25.73;;;10.80;99.90;;;;;;6402649;22;19994;-72
2023/12/23 12:53:01;;;;;;;38.83;27.30;;;10.80;99.90;;;;;;6402356;22;20001;-71
2023/12/23 12:55:27;;;;;;;34.53;24.80;;;10.80;99.90;;;;;;6402123;22;20089;-71
2023/12/23 12:57:53;;;;;;;41.03;26.45;;;10.80;99.90;;;;;;6402640;22;20044;-71
2023/12/23 13:00:19;;;;;;;41.03;26.80;;;10.80;99.90;;;;;;6399731;22;20004;-72
2023/12/23 13:02:46;;;;;;;36.67;26.88;;;10.80;99.90;;;;;;6399365;22;20086;-76
2023/12/23 13:05:11;;;;;;;33.67;24.42;;;10.80;99.90;;;;;;6399201;22;20002;-71
2023/12/23 13:07:43;;;;;;;39.83;25.05;;;10.80;99.90;;;;;;6402051;22;20043;-79
2023/12/23 13:10:22;;;;;;;33.92;23.80;;;10.80;99.90;;;;;;6402783;22;20010;-79
2023/12/23 13:26:04;;;;;;;42.30;26.05;;;10.90;99.90;;;;;;6093684;23;20018;-74
2023/12/23 13:35:56;;;;;;;40.55;26.35;;;10.90;99.90;;;;;;6025475;23;20066;-73
2023/12/23 13:38:25;;;;;;;32.78;23.73;;;10.90;99.90;;;;;;6123571;23;20022;-78
2023/12/23 13:40:54;;;;;;;33.13;24.10;;;10.90;99.90;;;;;;6314116;22;20029;-77
2023/12/23 13:43:20;;;;;;;32.58;23.92;;;10.90;99.90;;;;;;6341927;22;20010;-73
2023/12/23 13:45:46;;;;;;;34.50;26.08;;;10.90;99.90;;;;;;6369316;22;20377;-73
2023/12/23 13:48:12;;;;;;;34.58;26.08;;;10.90;99.90;;;;;;6367582;22;20009;-75
2023/12/23 13:50:38;;;;;;;37.17;26.30;;;10.90;99.90;;;;;;6366237;22;20082;-78
2023/12/23 13:53:04;;;;;;;36.60;25.48;;;10.80;99.90;;;;;;6367093;22;20048;-72
2023/12/23 13:55:29;;;;;;;37.70;26.33;;;10.90;99.90;;;;;;6369792;22;19998;-74
2023/12/23 13:57:55;;;;;;;37.47;25.10;;;10.90;99.90;;;;;;6369619;22;20014;-76
2023/12/23 14:00:21;;;;;;;35.28;24.92;;;10.90;99.90;;;;;;6369579;22;20013;-76
2023/12/23 14:02:47;;;;;;;32.13;24.65;;;10.90;99.90;;;;;;6370106;22;20047;-78
2023/12/23 14:05:12;;;;;;;34.30;25.25;;;10.90;99.90;;;;;;6369019;22;19995;-77
2023/12/23 14:07:38;;;;;;;33.55;25.90;;;10.90;99.90;;;;;;6369850;22;20002;-76
2023/12/23 14:10:04;;;;;;;33.85;24.05;;;10.90;99.90;;;;;;6340634;22;20055;-76
2023/12/23 14:12:30;;;;;;;36.38;26.63;;;10.90;99.90;;;;;;6367453;22;20298;-77
2023/12/23 14:14:56;;;;;;;31.10;24.30;;;10.80;99.90;;;;;;6368373;22;20132;-72
2023/12/23 14:17:21;;;;;;;38.60;26.05;;;10.80;99.90;;;;;;6367858;22;20022;-71
2023/12/23 14:19:47;;;;;;;35.05;24.88;;;10.80;99.90;;;;;;6367143;22;19998;-73
2023/12/23 14:22:14;;;;;;;40.35;26.13;;;10.80;99.90;;;;;;6367450;22;20001;-71
2023/12/23 14:24:40;;;;;;;36.25;25.05;;;10.70;99.90;;;;;;6368528;22;20029;-71
2023/12/23 14:27:06;;;;;;;33.25;25.42;;;10.70;99.90;;;;;;6370127;22;19994;-72
2023/12/23 14:29:31;;;;;;;35.42;25.77;;;10.70;99.90;;;;;;6369735;22;20081;-72
2023/12/23 14:31:57;;;;;;;40.03;27.08;;;10.70;99.90;;;;;;6396234;22;20049;-72
2023/12/23 14:34:23;;;;;;;35.90;25.98;;;10.70;99.90;;;;;;6402033;22;20009;-78
2023/12/23 14:36:49;;;;;;;37.55;25.58;;;10.60;99.90;;;;;;6402339;22;20006;-78
2023/12/23 14:39:17;;;;;;;36.03;24.75;;;10.60;99.90;;;;;;6401563;22;20398;-78
2023/12/23 14:41:44;;;;;;;36.33;25.63;;;10.60;99.90;;;;;;6402655;22;20385;-78
2023/12/23 14:44:11;;;;;;;36.65;26.25;;;10.60;99.90;;;;;;6402382;22;20382;-78
2023/12/23 14:46:42;;;;;;;37.13;25.40;;;10.50;99.90;;;;;;6402252;22;20006;-78
2023/12/23 15:00:45;;;;;;;33.75;23.60;;;10.30;99.90;;;;;;6125115;23;20056;-77
2023/12/23 15:03:14;;;;;;;32.88;22.45;;;10.30;99.90;;;;;;6153725;23;20317;-78